Time;durP1;ratioP1;P1;durP2;ratioP2;P2;SDS_P1;SDS_P2;PMS_P1;PMS_P2;Temp;Humidity;BMP_temperature;BMP_pressure;BME280_temperature;BME280_humidity;BME280_pressure;Samples;Min_cycle;Max_cycle;Signal;HPM_P1;HPM_P2
2023/04/25 00:01:06;;;;;;;13.75;4.15;;;;;;;;;;4949531;29;20043;-72
2023/04/25 00:03:32;;;;;;;18.63;4.22;;;7.20;99.90;;;;;;4948123;29;20050;-72
2023/04/25 00:06:04;;;;;;;12.80;3.65;;;;;;;;;;4942660;29;20058;-71
2023/04/25 00:08:30;;;;;;;18.00;3.95;;;;;;;;;;4942907;29;20047;-71
2023/04/25 00:10:57;;;;;;;12.90;3.90;;;;;;;;;;4948862;29;20070;-72
2023/04/25 00:13:23;;;;;;;17.38;4.07;;;;;;;;;;4945985;29;20054;-72
2023/04/25 00:15:50;;;;;;;21.63;3.60;;;;;;;;;;4944267;29;20047;-72
2023/04/25 00:18:17;;;;;;;13.38;4.85;;;;;;;;;;4946307;29;20051;-71
2023/04/25 00:20:46;;;;;;;11.85;3.70;;;6.80;99.90;;;;;;4944613;29;20047;-72
2023/04/25 00:23:12;;;;;;;12.98;3.45;;;;;;;;;;4941598;28;20040;-72
2023/04/25 00:25:37;;;;;;;13.10;3.53;;;6.80;99.90;;;;;;4942205;29;20202;-72
2023/04/25 00:28:03;;;;;;;17.92;4.43;;;6.80;99.90;;;;;;4939477;29;20529;-72
2023/04/25 00:30:29;;;;;;;13.93;3.85;;;;;;;;;;4945042;29;20183;-72
2023/04/25 00:32:55;;;;;;;17.13;4.60;;;;;;;;;;4943754;29;20105;-71
2023/04/25 00:35:21;;;;;;;15.95;4.32;;;;;;;;;;4948433;29;20143;-71
2023/04/25 00:37:47;;;;;;;22.45;3.90;;;;;;;;;;4945746;29;20046;-71
2023/04/25 00:40:12;;;;;;;15.50;3.33;;;6.70;99.90;;;;;;4940012;28;20040;-72
2023/04/25 00:42:39;;;;;;;19.35;4.72;;;;;;;;;;4946957;29;20054;-71
2023/04/25 00:45:07;;;;;;;13.23;3.88;;;;;;;;;;4944411;29;20425;-73
2023/04/25 00:47:33;;;;;;;22.80;4.85;;;6.60;99.90;;;;;;4944633;29;20051;-72
2023/04/25 00:49:59;;;;;;;11.90;3.40;;;6.60;99.90;;;;;;4945448;29;20047;-72
2023/04/25 00:52:25;;;;;;;21.77;4.90;;;;;;;;;;4938471;29;20043;-72
2023/04/25 00:54:51;;;;;;;13.65;3.45;;;;;;;;;;4949293;29;20051;-72
2023/04/25 00:57:17;;;;;;;17.15;4.80;;;;;;;;;;4945995;29;20398;-72
2023/04/25 00:59:46;;;;;;;12.90;4.13;;;;;;;;;;4937555;29;20047;-72
2023/04/25 01:02:12;;;;;;;17.58;4.20;;;;;;;;;;4946983;28;20054;-72
2023/04/25 01:04:38;;;;;;;17.90;3.85;;;6.50;99.90;;;;;;4947573;28;20122;-72
2023/04/25 01:07:05;;;;;;;14.75;3.58;;;;;;;;;;4948289;28;20047;-71
2023/04/25 01:09:34;;;;;;;12.75;3.63;;;;;;;;;;4930173;28;20588;-72
2023/04/25 01:12:00;;;;;;;21.65;6.03;;;;;;;;;;4944566;29;20047;-71
2023/04/25 01:14:27;;;;;;;15.55;3.63;;;;;;;;;;4946253;29;20055;-72
2023/04/25 01:16:53;;;;;;;14.80;4.28;;;;;;;;;;4945133;29;20489;-71
2023/04/25 01:19:19;;;;;;;14.75;4.85;;;6.50;99.90;;;;;;4929449;29;20075;-71
2023/04/25 01:21:45;;;;;;;15.40;3.22;;;;;;;;;;4944468;29;20039;-72
2023/04/25 01:24:11;;;;;;;14.05;3.47;;;;;;;;;;4937573;28;20079;-72
2023/04/25 01:26:37;;;;;;;15.38;2.95;;;6.50;99.90;;;;;;4940845;29;20449;-71
2023/04/25 01:29:07;;;;;;;15.38;3.22;;;;;;;;;;4937907;29;20047;-72
2023/04/25 01:31:34;;;;;;;10.85;3.35;;;6.70;99.90;;;;;;4928934;29;20051;-72
2023/04/25 01:34:01;;;;;;;15.25;3.78;;;;;;;;;;4942882;29;20476;-72
2023/04/25 01:36:27;;;;;;;19.63;3.90;;;;;;;;;;4948988;28;20090;-73
2023/04/25 01:38:53;;;;;;;21.55;3.75;;;;;;;;;;4944302;29;20093;-72
2023/04/25 01:41:19;;;;;;;15.77;3.60;;;;;;;;;;4944477;28;20058;-71
2023/04/25 01:43:45;;;;;;;11.25;2.67;;;;;;;;;;4948226;28;20479;-71
2023/04/25 01:46:12;;;;;;;14.30;4.47;;;;;;;;;;4940133;29;20048;-72
2023/04/25 01:48:38;;;;;;;17.45;4.82;;;;;;;;;;4942920;29;20058;-72
2023/04/25 01:51:04;;;;;;;12.27;2.97;;;;;;;;;;4941411;29;20047;-71
2023/04/25 01:53:30;;;;;;;18.25;3.40;;;;;;;;;;4938831;29;20055;-71
2023/04/25 01:55:56;;;;;;;15.75;4.30;;;;;;;;;;4940948;28;20520;-72
2023/04/25 01:58:22;;;;;;;18.52;3.42;;;;;;;;;;4940042;29;20043;-73
2023/04/25 02:00:48;;;;;;;18.02;3.42;;;;;;;;;;4938414;29;20126;-72
2023/04/25 02:03:14;;;;;;;9.15;2.60;;;;;;;;;;4946166;28;20465;-72
2023/04/25 02:05:40;;;;;;;13.13;3.28;;;6.50;99.90;;;;;;4942130;29;20046;-71
2023/04/25 02:08:06;;;;;;;14.45;3.25;;;;;;;;;;4941662;29;20138;-73
2023/04/25 02:10:33;;;;;;;18.92;3.45;;;;;;;;;;4942717;29;20145;-71
2023/04/25 02:12:59;;;;;;;15.05;3.05;;;;;;;;;;4944445;29;20043;-72
2023/04/25 02:15:25;;;;;;;14.98;3.30;;;;;;;;;;4939796;29;20058;-71
2023/04/25 02:17:52;;;;;;;16.05;3.35;;;;;;;;;;4941917;29;20047;-72
2023/04/25 02:20:19;;;;;;;17.80;3.22;;;;;;;;;;4920742;29;20523;-71
2023/04/25 02:22:46;;;;;;;15.32;3.63;;;;;;;;;;4939369;29;20127;-71
2023/04/25 02:25:12;;;;;;;16.60;4.10;;;;;;;;;;4940892;29;20666;-71
2023/04/25 02:27:38;;;;;;;15.32;3.75;;;;;;;;;;4942935;28;20589;-71
2023/04/25 02:30:06;;;;;;;13.63;3.47;;;6.10;99.90;;;;;;4954270;28;20070;-71
2023/04/25 02:32:34;;;;;;;11.60;3.15;;;;;;;;;;4946545;28;20047;-71
2023/04/25 02:35:03;;;;;;;15.05;3.17;;;;;;;;;;4951906;28;20053;-73
2023/04/25 02:37:29;;;;;;;13.07;3.03;;;;;;;;;;4938537;28;20127;-72
2023/04/25 02:39:55;;;;;;;10.30;2.90;;;;;;;;;;4947707;28;20494;-72
2023/04/25 02:42:21;;;;;;;12.00;2.90;;;;;;;;;;4947712;28;20062;-71
2023/04/25 02:44:47;;;;;;;17.20;3.75;;;6.20;99.90;;;;;;4944032;28;20406;-71
2023/04/25 02:47:13;;;;;;;14.07;3.63;;;;;;;;;;4939770;28;20047;-71
2023/04/25 02:49:38;;;;;;;13.93;3.95;;;;;;;;;;4938863;28;20051;-72
2023/04/25 02:52:05;;;;;;;10.00;3.20;;;;;;;;;;4945256;28;20043;-72
2023/04/25 02:54:31;;;;;;;14.40;3.47;;;;;;;;;;4946778;28;20078;-71
2023/04/25 02:56:57;;;;;;;14.60;2.75;;;;;;;;;;4949614;28;20042;-72
2023/04/25 02:59:23;;;;;;;12.93;2.97;;;;;;;;;;4946979;28;20044;-71
2023/04/25 03:01:49;;;;;;;12.35;2.70;;;;;;;;;;4947869;28;20136;-73
2023/04/25 03:04:15;;;;;;;9.45;3.25;;;;;;;;;;4948741;28;20796;-71
2023/04/25 03:06:41;;;;;;;8.52;2.35;;;;;;;;;;4943473;29;20051;-71
2023/04/25 03:09:07;;;;;;;12.15;2.67;;;;;;;;;;4951890;28;20474;-72
2023/04/25 03:11:33;;;;;;;15.90;3.25;;;;;;;;;;4946703;29;20056;-72
2023/04/25 03:13:59;;;;;;;9.93;2.70;;;;;;;;;;4945177;29;20525;-71
2023/04/25 03:16:25;;;;;;;13.13;2.83;;;;;;;;;;4946435;29;20054;-71
2023/04/25 03:18:51;;;;;;;9.43;2.33;;;;;;;;;;4947075;28;20039;-71
2023/04/25 03:21:17;;;;;;;11.10;2.92;;;;;;;;;;4946810;29;20039;-71
2023/04/25 03:23:43;;;;;;;11.32;2.53;;;;;;;;;;4946369;28;20105;-71
2023/04/25 03:26:09;;;;;;;9.65;2.50;;;;;;;;;;4942996;29;20458;-71
2023/04/25 03:28:35;;;;;;;10.90;2.15;;;;;;;;;;4942254;28;20058;-71
2023/04/25 03:31:01;;;;;;;5.35;2.47;;;;;;;;;;4943161;29;20406;-71
2023/04/25 03:33:27;;;;;;;6.25;2.78;;;;;;;;;;4943052;29;20055;-72
2023/04/25 03:35:53;;;;;;;13.15;2.63;;;;;;;;;;4943951;29;20466;-71
2023/04/25 03:38:19;;;;;;;9.48;2.38;;;;;;;;;;4940884;29;20102;-71
2023/04/25 03:40:45;;;;;;;14.50;2.88;;;;;;;;;;4923798;29;20043;-71
2023/04/25 03:43:11;;;;;;;8.73;2.22;;;;;;;;;;4946259;29;20054;-71
2023/04/25 03:45:37;;;;;;;8.55;2.35;;;;;;;;;;4944212;29;20066;-73
2023/04/25 03:48:04;;;;;;;7.97;2.08;;;;;;;;;;4945571;29;20051;-71
2023/04/25 03:50:30;;;;;;;11.35;3.13;;;;;;;;;;4947468;29;20161;-72
2023/04/25 03:52:55;;;;;;;10.00;1.85;;;;;;;;;;4925926;29;20046;-71
2023/04/25 03:55:21;;;;;;;5.95;1.65;;;;;;;;;;4948238;29;20043;-71
2023/04/25 03:57:47;;;;;;;7.85;1.70;;;;;;;;;;4942619;29;20047;-72
2023/04/25 04:00:14;;;;;;;6.15;2.30;;;;;;;;;;4942853;29;20680;-71
2023/04/25 04:02:40;;;;;;;5.28;1.73;;;;;;;;;;4941785;29;20043;-72
2023/04/25 04:05:06;;;;;;;9.25;2.53;;;;;;;;;;4945291;29;20069;-71
2023/04/25 04:07:33;;;;;;;11.57;2.75;;;;;;;;;;4940434;29;20087;-71
2023/04/25 04:09:59;;;;;;;13.32;3.05;;;;;;;;;;4946946;29;20070;-71
2023/04/25 04:12:25;;;;;;;11.18;3.28;;;;;;;;;;4944948;29;20066;-72
2023/04/25 04:14:51;;;;;;;13.32;2.42;;;;;;;;;;4945933;28;20043;-72
2023/04/25 04:17:17;;;;;;;16.05;3.05;;;;;;;;;;4947176;29;20047;-71
2023/04/25 04:19:43;;;;;;;8.98;2.42;;;;;;;;;;4940465;29;20044;-71
2023/04/25 04:22:09;;;;;;;7.25;2.05;;;;;;;;;;4941040;29;20067;-71
2023/04/25 04:24:35;;;;;;;8.55;2.78;;;;;;;;;;4949876;28;20139;-71
2023/04/25 04:27:01;;;;;;;11.65;2.67;;;;;;;;;;4944544;29;20099;-71
2023/04/25 04:29:27;;;;;;;9.30;2.53;;;;;;;;;;4935293;29;20079;-72
2023/04/25 04:31:53;;;;;;;13.43;2.30;;;;;;;;;;4949436;29;20047;-72
2023/04/25 04:34:19;;;;;;;17.48;3.95;;;;;;;;;;4938256;28;20584;-73
2023/04/25 04:36:46;;;;;;;8.85;2.53;;;;;;;;;;4944199;28;20038;-70
2023/04/25 04:39:12;;;;;;;10.45;3.00;;;;;;;;;;4945611;28;20113;-70
2023/04/25 04:41:38;;;;;;;8.68;1.92;;;;;;;;;;4952311;28;20677;-70
2023/04/25 04:44:06;;;;;;;12.98;2.55;;;;;;;;;;4952465;28;20047;-70
2023/04/25 04:46:37;;;;;;;5.78;1.95;;;;;;;;;;4940794;28;20549;-70
2023/04/25 04:49:03;;;;;;;8.23;2.80;;;;;;;;;;4951806;28;20054;-70
2023/04/25 04:51:31;;;;;;;7.03;2.10;;;;;;;;;;4928535;29;20039;-70
2023/04/25 04:53:58;;;;;;;15.23;3.13;;;;;;;;;;4944175;28;20414;-71
2023/04/25 04:56:25;;;;;;;8.38;2.10;;;;;;;;;;4938649;28;20122;-70
2023/04/25 04:58:52;;;;;;;7.55;2.22;;;;;;;;;;4946211;28;20055;-71
2023/04/25 05:01:18;;;;;;;10.30;2.67;;;;;;;;;;4952151;28;20059;-71
2023/04/25 05:03:44;;;;;;;12.35;2.85;;;;;;;;;;4952635;28;20394;-71
2023/04/25 05:06:10;;;;;;;10.25;2.38;;;;;;;;;;4947597;28;20050;-70
2023/04/25 05:08:36;;;;;;;7.15;2.38;;;;;;;;;;4946571;28;20413;-71
2023/04/25 05:11:03;;;;;;;12.25;2.33;;;;;;;;;;4939078;28;20046;-70
2023/04/25 05:13:29;;;;;;;8.90;2.38;;;;;;;;;;4947592;28;20445;-70
2023/04/25 05:15:55;;;;;;;15.25;3.28;;;;;;;;;;4946502;28;20043;-71
2023/04/25 05:18:21;;;;;;;13.65;2.65;;;;;;;;;;4945248;28;20509;-69
2023/04/25 05:20:47;;;;;;;11.23;2.38;;;;;;;;;;4944870;28;20047;-70
2023/04/25 05:23:13;;;;;;;7.65;2.15;;;;;;;;;;4934004;28;20042;-69
2023/04/25 05:25:38;;;;;;;8.15;1.90;;;6.10;99.90;;;;;;4946899;28;20517;-69
2023/04/25 05:28:05;;;;;;;11.15;2.28;;;;;;;;;;4946326;28;20125;-71
2023/04/25 05:30:31;;;;;;;11.13;2.40;;;;;;;;;;4949656;28;20530;-70
2023/04/25 05:32:57;;;;;;;8.57;2.33;;;;;;;;;;4949829;28;20130;-69
2023/04/25 05:35:23;;;;;;;10.88;2.67;;;;;;;;;;4942451;28;20055;-70
2023/04/25 05:37:49;;;;;;;8.70;2.15;;;;;;;;;;4934454;28;20327;-70
2023/04/25 05:40:15;;;;;;;13.85;2.72;;;;;;;;;;4939418;28;20050;-70
2023/04/25 05:42:41;;;;;;;11.38;2.45;;;;;;;;;;4938891;28;20099;-71
2023/04/25 05:45:07;;;;;;;8.65;2.08;;;;;;;;;;4938562;28;20109;-70
2023/04/25 05:47:33;;;;;;;10.95;2.00;;;;;;;;;;4944907;28;20055;-71
2023/04/25 05:49:59;;;;;;;10.18;2.47;;;;;;;;;;4953125;28;20058;-71
2023/04/25 05:52:25;;;;;;;7.07;2.08;;;;;;;;;;4961470;28;20117;-71
2023/04/25 05:54:51;;;;;;;11.07;2.20;;;;;;;;;;4938045;29;20056;-73
2023/04/25 05:57:21;;;;;;;9.75;2.63;;;;;;;;;;4951149;28;20511;-71
2023/04/25 05:59:47;;;;;;;8.77;3.45;;;;;;;;;;4937659;28;20048;-72
2023/04/25 06:02:13;;;;;;;12.45;2.15;;;;;;;;;;4950233;28;20046;-71
2023/04/25 06:04:39;;;;;;;12.15;2.55;;;;;;;;;;4948464;28;20038;-71
2023/04/25 06:07:04;;;;;;;9.57;2.20;;;;;;;;;;4939530;28;20179;-71
2023/04/25 06:09:30;;;;;;;7.90;2.42;;;;;;;;;;4940128;28;20061;-71
2023/04/25 06:11:56;;;;;;;9.80;2.45;;;;;;;;;;4951056;28;20567;-70
2023/04/25 06:14:22;;;;;;;6.20;1.88;;;7.80;99.90;;;;;;4948908;28;20070;-71
2023/04/25 06:16:48;;;;;;;10.70;2.22;;;;;;;;;;4946231;28;20077;-71
2023/04/25 06:19:14;;;;;;;5.10;1.40;;;;;;;;;;4946786;28;20047;-71
2023/04/25 06:21:40;;;;;;;8.07;1.52;;;;;;;;;;4941764;28;20043;-73
2023/04/25 06:24:05;;;;;;;5.05;1.83;;;12.10;99.90;;;;;;4943923;28;20559;-72
2023/04/25 06:26:31;;;;;;;11.82;2.20;;;;;;;;;;4943040;28;20051;-72
2023/04/25 06:28:57;;;;;;;7.07;1.95;;;;;;;;;;4942960;28;20052;-71
2023/04/25 06:31:23;;;;;;;5.93;1.40;;;14.20;99.90;;;;;;4942148;28;20043;-70
2023/04/25 06:33:49;;;;;;;5.80;1.52;;;;;;;;;;4941517;28;20847;-71
2023/04/25 06:36:15;;;;;;;8.02;1.73;;;;;;;;;;4940161;28;20051;-71
2023/04/25 06:38:41;;;;;;;6.43;1.50;;;12.60;99.90;;;;;;4937318;28;20050;-72
2023/04/25 06:41:07;;;;;;;5.47;1.50;;;;;;;;;;4941665;29;20039;-72
2023/04/25 06:43:33;;;;;;;6.75;1.20;;;;;;;;;;4951322;28;20042;-72
2023/04/25 06:46:00;;;;;;;3.15;1.25;;;;;;;;;;4945393;28;20044;-73
2023/04/25 06:48:27;;;;;;;3.47;1.55;;;;;;;;;;4948092;28;20075;-73
2023/04/25 06:50:53;;;;;;;5.32;1.20;;;;;;;;;;4947271;28;20065;-74
2023/04/25 06:53:19;;;;;;;3.28;1.30;;;;;;;;;;4942880;28;20043;-74
2023/04/25 06:55:45;;;;;;;4.80;1.00;;;;;;;;;;4941387;28;20138;-75
2023/04/25 06:58:10;;;;;;;2.30;1.10;;;8.30;99.90;;;;;;4948979;28;20126;-72
2023/04/25 07:00:36;;;;;;;8.13;1.63;;;;;;;;;;4948505;28;20040;-73
2023/04/25 07:03:02;;;;;;;2.50;1.10;;;;;;;;;;4933294;29;20441;-74
2023/04/25 07:05:28;;;;;;;8.77;1.92;;;8.70;99.90;;;;;;4952151;28;20174;-71
2023/04/25 07:07:54;;;;;;;5.25;1.60;;;8.80;99.90;;;;;;4946067;29;20126;-71
2023/04/25 07:10:21;;;;;;;6.13;1.50;;;;;;;;;;4944334;29;20108;-72
2023/04/25 07:12:47;;;;;;;6.15;2.05;;;;;;;;;;4950647;28;20048;-73
2023/04/25 07:15:13;;;;;;;8.23;1.40;;;;;;;;;;4942687;28;20054;-73
2023/04/25 07:17:38;;;;;;;10.88;1.65;;;9.50;99.90;;;;;;4943181;28;20093;-73
2023/04/25 07:20:05;;;;;;;11.00;1.95;;;;;;;;;;4948030;28;20812;-72
2023/04/25 07:22:32;;;;;;;7.97;1.90;;;9.60;99.90;;;;;;4952985;28;20054;-72
2023/04/25 07:24:58;;;;;;;3.97;1.73;;;;;;;;;;4947047;28;20062;-70
2023/04/25 07:27:24;;;;;;;5.07;2.17;;;;;;;;;;4946052;28;20106;-72
2023/04/25 07:29:50;;;;;;;9.07;1.80;;;;;;;;;;4948433;28;20422;-71
2023/04/25 07:32:16;;;;;;;7.18;1.42;;;;;;;;;;4943610;28;20051;-71
2023/04/25 07:34:42;;;;;;;5.72;1.30;;;;;;;;;;4947114;28;20130;-71
2023/04/25 07:37:08;;;;;;;6.13;1.73;;;;;;;;;;4946607;28;20047;-70
2023/04/25 07:39:34;;;;;;;9.02;1.88;;;;;;;;;;4948726;28;20074;-72
2023/04/25 07:42:01;;;;;;;8.43;1.98;;;;;;;;;;4950112;28;20047;-70
2023/04/25 07:44:27;;;;;;;7.80;2.45;;;;;;;;;;4940293;28;20059;-70
2023/04/25 07:46:53;;;;;;;6.53;1.77;;;;;;;;;;4942875;28;20054;-70
2023/04/25 07:49:19;;;;;;;8.38;1.70;;;;;;;;;;4948182;28;20610;-69
2023/04/25 07:51:45;;;;;;;8.68;1.70;;;;;;;;;;4948224;28;20043;-70
2023/04/25 07:54:15;;;;;;;7.45;1.95;;;;;;;;;;4953319;28;20043;-71
2023/04/25 07:56:41;;;;;;;8.15;1.65;;;;;;;;;;4947148;28;20102;-70
2023/04/25 07:59:07;;;;;;;10.23;1.77;;;;;;;;;;4933833;28;20042;-71
2023/04/25 08:01:34;;;;;;;9.80;1.80;;;;;;;;;;4931170;29;20045;-71
2023/04/25 08:04:00;;;;;;;6.90;1.60;;;;;;;;;;4950928;28;20126;-70
2023/04/25 08:06:27;;;;;;;7.53;1.60;;;;;;;;;;4946112;28;20127;-69
2023/04/25 08:08:53;;;;;;;6.18;1.83;;;;;;;;;;4946475;28;20051;-70
2023/04/25 08:11:25;;;;;;;13.25;2.50;;;;;;;;;;4943648;28;20059;-72
2023/04/25 08:13:51;;;;;;;8.57;2.17;;;;;;;;;;4930285;29;20664;-70
2023/04/25 08:16:17;;;;;;;4.97;1.92;;;;;;;;;;4952507;28;20061;-70
2023/04/25 08:18:43;;;;;;;8.32;1.58;;;;;;;;;;4951208;28;20422;-70
2023/04/25 08:21:11;;;;;;;9.52;2.35;;;;;;;;;;4933641;28;20046;-70
2023/04/25 08:23:46;;;;;;;6.82;1.48;;;;;;;;;;4930165;28;20047;-72
2023/04/25 08:26:21;;;;;;;6.50;1.48;;;;;;;;;;4946391;28;20748;-71
2023/04/25 08:29:02;;;;;;;5.43;1.50;;;;;;;;;;4945558;28;20558;-71
2023/04/25 08:31:28;;;;;;;5.93;1.40;;;;;;;;;;4932168;28;20110;-70
2023/04/25 08:37:26;;;;;;;9.73;2.00;;;;;;;;;;4903420;28;20059;-71
2023/04/25 08:39:53;;;;;;;5.07;1.58;;;;;;;;;;4944019;28;20129;-71
2023/04/25 08:42:19;;;;;;;9.85;1.60;;;;;;;;;;4947304;28;20401;-70
2023/04/25 08:44:55;;;;;;;9.55;1.70;;;;;;;;;;4952328;28;20557;-70
2023/04/25 08:47:25;;;;;;;6.38;1.80;;;;;;;;;;4932888;29;20043;-71
2023/04/25 08:49:57;;;;;;;4.97;1.95;;;;;;;;;;4933993;29;20204;-72
2023/04/25 08:52:26;;;;;;;6.53;1.73;;;10.00;99.90;;;;;;4947872;28;20043;-72
2023/04/25 08:54:53;;;;;;;10.55;1.67;;;;;;;;;;4929970;29;20102;-70
2023/04/25 08:57:22;;;;;;;6.57;1.83;;;;;;;;;;4930070;29;20464;-72
2023/04/25 08:59:53;;;;;;;8.02;1.67;;;;;;;;;;4936888;29;20137;-70
2023/04/25 09:02:43;;;;;;;6.80;2.28;;;;;;;;;;4932039;28;20046;-71
2023/04/25 09:09:16;;;;;;;5.22;1.50;;;;;;;;;;4917456;29;20055;-71
2023/04/25 09:12:10;;;;;;;7.07;1.95;;;;;;;;;;4945967;29;20106;-71
2023/04/25 09:14:48;;;;;;;;;;;;;;;;;;;;;
2023/04/25 09:17:20;;;;;;;8.50;2.33;;;;;;;;;;4951675;28;20047;-70
2023/04/25 09:19:52;;;;;;;6.07;1.63;;;;;;;;;;4949436;28;20057;-71
2023/04/25 09:22:44;;;;;;;8.93;2.15;;;;;;;;;;4953486;28;20054;-71
2023/04/25 09:25:11;;;;;;;5.00;1.73;;;;;;;;;;4936445;28;20065;-71
2023/04/25 09:27:37;;;;;;;9.30;2.15;;;;;;;;;;4934886;28;20043;-74
2023/04/25 09:30:03;;;;;;;7.47;1.85;;;;;;;;;;4949574;28;20046;-73
2023/04/25 09:32:29;;;;;;;7.43;2.30;;;;;;;;;;4956042;28;20173;-71
2023/04/25 09:34:56;;;;;;;8.32;1.77;;;;;;;;;;4944639;28;20114;-71
2023/04/25 09:37:26;;;;;;;7.47;1.77;;;;;;;;;;4943697;28;20102;-71
2023/04/25 09:39:56;;;;;;;5.97;1.60;;;;;;;;;;4941719;28;20402;-71
2023/04/25 09:42:23;;;;;;;5.45;1.70;;;;;;;;;;4948181;28;20048;-71
2023/04/25 09:44:51;;;;;;;5.00;1.38;;;;;;;;;;4928085;28;20051;-72
2023/04/25 09:47:17;;;;;;;5.60;2.00;;;;;;;;;;4940581;28;20055;-71
2023/04/25 09:49:44;;;;;;;8.95;1.80;;;;;;;;;;4945610;28;20051;-71
2023/04/25 09:52:13;;;;;;;8.45;1.90;;;;;;;;;;4945071;28;20039;-70
2023/04/25 09:54:39;;;;;;;11.23;2.08;;;;;;;;;;4952958;28;20051;-71
2023/04/25 09:57:11;;;;;;;10.65;1.83;;;;;;;;;;4941366;28;20047;-71
2023/04/25 09:59:38;;;;;;;8.48;2.53;;;;;;;;;;4946677;28;20051;-71
2023/04/25 10:02:07;;;;;;;8.05;1.50;;;10.40;99.90;;;;;;4945316;28;20085;-72
2023/04/25 10:04:35;;;;;;;7.18;1.55;;;;;;;;;;4949822;28;20598;-71
2023/04/25 10:07:02;;;;;;;8.02;1.65;;;;;;;;;;4944271;28;20046;-71
2023/04/25 10:09:32;;;;;;;6.53;2.13;;;;;;;;;;4945419;28;20050;-71
2023/04/25 10:11:58;;;;;;;8.13;2.35;;;;;;;;;;4938682;29;20112;-72
2023/04/25 10:14:25;;;;;;;8.43;2.72;;;;;;;;;;4943492;28;20083;-70
2023/04/25 10:16:53;;;;;;;7.45;1.80;;;;;;;;;;4948223;28;20106;-72
2023/04/25 10:19:19;;;;;;;8.20;2.00;;;;;;;;;;4949149;28;20107;-73
2023/04/25 10:21:51;;;;;;;11.35;2.47;;;;;;;;;;4948622;28;20047;-71
2023/04/25 10:24:18;;;;;;;6.53;1.90;;;;;;;;;;4945600;28;20078;-71
2023/04/25 10:26:44;;;;;;;7.90;1.80;;;;;;;;;;4948348;28;20043;-72
2023/04/25 10:29:10;;;;;;;9.13;1.83;;;;;;;;;;4946617;28;20054;-71
2023/04/25 10:31:44;;;;;;;8.00;1.80;;;;;;;;;;4946798;28;20046;-70
2023/04/25 10:34:10;;;;;;;4.43;1.55;;;;;;;;;;4945060;28;20047;-70
2023/04/25 10:36:37;;;;;;;11.98;1.92;;;;;;;;;;4944766;28;20051;-70
2023/04/25 10:39:08;;;;;;;6.20;1.48;;;;;;;;;;4946219;28;20046;-69
2023/04/25 10:41:46;;;;;;;9.32;2.22;;;;;;;;;;4946683;28;20047;-69
2023/04/25 10:44:12;;;;;;;5.40;1.58;;;;;;;;;;4947237;28;20098;-70
2023/04/25 10:46:38;;;;;;;6.38;2.22;;;;;;;;;;4949000;28;20044;-70
2023/04/25 10:49:04;;;;;;;9.93;2.25;;;;;;;;;;4950775;28;20046;-70
2023/04/25 10:51:32;;;;;;;6.43;1.83;;;10.90;99.90;;;;;;4949126;28;20127;-70
2023/04/25 10:54:02;;;;;;;8.82;2.20;;;11.00;99.90;;;;;;4952072;28;20049;-70
2023/04/25 10:56:43;;;;;;;7.47;2.22;;;11.10;99.90;;;;;;4926766;29;20052;-71
2023/04/25 10:59:13;;;;;;;9.27;2.20;;;;;;;;;;4942857;28;20045;-71
2023/04/25 11:01:40;;;;;;;5.70;1.38;;;;;;;;;;4949494;28;20058;-71
2023/04/25 11:04:07;;;;;;;6.90;1.40;;;;;;;;;;4946047;28;20447;-71
2023/04/25 11:06:56;;;;;;;8.73;1.73;;;;;;;;;;4946754;28;20046;-71
2023/04/25 11:09:24;;;;;;;9.35;2.03;;;;;;;;;;4945147;29;20055;-71
2023/04/25 11:11:56;;;;;;;11.38;1.83;;;;;;;;;;4943498;29;20704;-72
2023/04/25 11:14:22;;;;;;;10.20;1.65;;;;;;;;;;4946493;29;20047;-70
2023/04/25 11:16:54;;;;;;;5.53;1.10;;;;;;;;;;4946813;28;20347;-70
2023/04/25 11:19:20;;;;;;;12.27;3.72;;;11.30;99.90;;;;;;4947965;29;20058;-72
2023/04/25 11:21:46;;;;;;;7.18;2.17;;;;;;;;;;4943852;29;20036;-71
2023/04/25 11:24:12;;;;;;;6.00;1.73;;;;;;;;;;4942673;28;20035;-72
2023/04/25 11:26:38;;;;;;;7.85;1.52;;;;;;;;;;4928784;29;20055;-70
2023/04/25 11:29:04;;;;;;;7.82;2.35;;;;;;;;;;4948542;29;20551;-70
2023/04/25 11:31:30;;;;;;;8.05;2.70;;;;;;;;;;4941345;29;20051;-72
2023/04/25 11:33:59;;;;;;;8.85;1.92;;;;;;;;;;4947962;29;20121;-69
2023/04/25 11:36:26;;;;;;;6.90;1.30;;;;;;;;;;4945442;29;20055;-72
2023/04/25 11:38:53;;;;;;;7.50;1.67;;;;;;;;;;4944232;29;20062;-74
2023/04/25 11:41:19;;;;;;;6.88;1.02;;;;;;;;;;4948699;28;20073;-72
2023/04/25 11:43:46;;;;;;;5.20;1.33;;;;;;;;;;4954640;28;20391;-73
2023/04/25 11:46:12;;;;;;;4.70;1.30;;;;;;;;;;4933758;29;20062;-71
2023/04/25 11:48:41;;;;;;;2.42;0.98;;;;;;;;;;4948741;28;20047;-71
2023/04/25 11:51:08;;;;;;;3.63;1.02;;;;;;;;;;4946611;28;20043;-72
2023/04/25 11:53:34;;;;;;;8.20;1.55;;;;;;;;;;4943597;28;20062;-74
2023/04/25 11:56:01;;;;;;;4.95;1.40;;;;;;;;;;4942171;28;20086;-72
2023/04/25 11:58:27;;;;;;;6.38;1.27;;;;;;;;;;4945315;28;20051;-72
2023/04/25 12:00:53;;;;;;;3.47;1.27;;;;;;;;;;4952348;28;20660;-73
2023/04/25 12:03:21;;;;;;;6.95;1.73;;;;;;;;;;4948331;28;20115;-71
2023/04/25 12:05:47;;;;;;;4.60;1.60;;;;;;;;;;4948311;28;20378;-70
2023/04/25 12:08:14;;;;;;;10.02;1.45;;;;;;;;;;4948399;28;20047;-72
2023/04/25 12:10:41;;;;;;;5.85;2.15;;;;;;;;;;4944524;29;20043;-71
2023/04/25 12:13:23;;;;;;;5.60;1.52;;;;;;;;;;4943510;29;20422;-73
2023/04/25 12:15:49;;;;;;;3.88;1.60;;;;;;;;;;4947612;29;20125;-70
2023/04/25 12:18:19;;;;;;;6.63;1.67;;;;;;;;;;4943919;28;20048;-71
2023/04/25 12:20:45;;;;;;;8.93;1.50;;;;;;;;;;4944973;28;20067;-71
2023/04/25 12:23:12;;;;;;;6.55;1.75;;;;;;;;;;4950382;28;20428;-71
2023/04/25 12:25:39;;;;;;;8.65;1.90;;;;;;;;;;4946145;28;20414;-71
2023/04/25 12:28:16;;;;;;;9.45;1.40;;;;;;;;;;4952251;28;20406;-71
2023/04/25 12:31:06;;;;;;;7.00;1.50;;;10.60;99.90;;;;;;4953130;28;20064;-71
2023/04/25 12:33:33;;;;;;;7.53;1.90;;;;;;;;;;4947402;28;20077;-71
2023/04/25 12:36:03;;;;;;;4.68;1.67;;;10.10;99.90;;;;;;4948614;28;20490;-71
2023/04/25 12:38:31;;;;;;;8.43;2.78;;;;;;;;;;4953506;28;20039;-72
2023/04/25 12:40:58;;;;;;;4.57;1.25;;;9.50;99.90;;;;;;4944482;28;20043;-72
2023/04/25 12:43:24;;;;;;;6.03;1.80;;;;;;;;;;4944183;28;20082;-71
2023/04/25 12:45:51;;;;;;;5.95;1.83;;;;;;;;;;4937875;28;20138;-73
2023/04/25 12:48:17;;;;;;;7.07;1.60;;;;;;;;;;4944474;28;20043;-70
2023/04/25 12:50:43;;;;;;;5.22;1.73;;;;;;;;;;4951910;28;20051;-71
2023/04/25 12:53:09;;;;;;;5.72;1.75;;;;;;;;;;4951957;28;20138;-70
2023/04/25 12:55:35;;;;;;;9.20;2.05;;;;;;;;;;4948578;28;20129;-71
2023/04/25 12:58:02;;;;;;;6.15;1.58;;;;;;;;;;4940454;28;20044;-70
2023/04/25 13:00:28;;;;;;;8.23;1.75;;;;;;;;;;4947043;28;20047;-70
2023/04/25 13:02:55;;;;;;;22.02;9.70;;;;;;;;;;4945302;28;20043;-72
2023/04/25 13:05:22;;;;;;;24.55;11.90;;;;;;;;;;4938786;28;20062;-71
2023/04/25 13:07:48;;;;;;;6.30;1.73;;;;;;;;;;4938827;28;20384;-70
2023/04/25 13:10:14;;;;;;;4.68;1.52;;;;;;;;;;4945420;29;20053;-70
2023/04/25 13:12:39;;;;;;;6.30;1.73;;;;;;;;;;4942272;29;20681;-70
2023/04/25 13:15:09;;;;;;;6.05;1.60;;;;;;;;;;4940165;29;20059;-70
2023/04/25 13:17:35;;;;;;;7.10;2.80;;;;;;;;;;4945984;28;20049;-72
2023/04/25 13:20:01;;;;;;;6.38;2.45;;;;;;;;;;4945275;29;20035;-74
2023/04/25 13:22:27;;;;;;;6.88;1.80;;;;;;;;;;4943865;28;20047;-72
2023/04/25 13:24:53;;;;;;;10.13;2.00;;;;;;;;;;4944918;28;20069;-71
2023/04/25 13:27:18;;;;;;;10.27;1.50;;;;;;;;;;4942559;28;20114;-72
2023/04/25 13:29:45;;;;;;;6.72;1.52;;;;;;;;;;4944680;28;20051;-72
2023/04/25 13:32:11;;;;;;;5.15;1.48;;;;;;;;;;4949840;28;20074;-73
2023/04/25 13:34:36;;;;;;;6.93;1.40;;;;;;;;;;4920726;29;20079;-72
2023/04/25 13:37:02;;;;;;;6.60;2.17;;;;;;;;;;4942199;28;20050;-73
2023/04/25 13:39:28;;;;;;;5.03;1.45;;;;;;;;;;4940897;28;20512;-73
2023/04/25 13:41:55;;;;;;;8.65;1.83;;;;;;;;;;4946125;28;20046;-74
2023/04/25 13:44:21;;;;;;;4.90;1.67;;;;;;;;;;4940359;28;20138;-73
2023/04/25 13:46:47;;;;;;;13.75;2.20;;;;;;;;;;4946042;28;20121;-75
2023/04/25 13:49:14;;;;;;;6.90;2.35;;;;;;;;;;4941838;28;20441;-72
2023/04/25 13:51:40;;;;;;;7.28;1.70;;;;;;;;;;4949386;28;20046;-72
2023/04/25 13:54:06;;;;;;;6.75;1.70;;;;;;;;;;4952923;28;20117;-73
2023/04/25 13:56:32;;;;;;;7.50;2.25;;;;;;;;;;4943328;28;20083;-72
2023/04/25 13:58:58;;;;;;;9.20;1.70;;;;;;;;;;4942264;28;20071;-73
2023/04/25 14:01:24;;;;;;;6.00;1.88;;;;;;;;;;4931367;28;20457;-71
2023/04/25 14:03:50;;;;;;;7.60;2.35;;;;;;;;;;4943047;28;20114;-72
2023/04/25 14:06:22;;;;;;;6.80;2.97;;;;;;;;;;4928694;29;20053;-71
2023/04/25 14:08:48;;;;;;;11.02;2.17;;;;;;;;;;4936366;28;20056;-71
2023/04/25 14:11:13;;;;;;;7.53;2.10;;;9.90;99.90;;;;;;4944658;29;20043;-70
2023/04/25 14:13:40;;;;;;;7.53;2.08;;;;;;;;;;4941677;29;20051;-69
2023/04/25 14:16:06;;;;;;;6.00;2.50;;;;;;;;;;4937284;29;20043;-70
2023/04/25 14:18:32;;;;;;;6.70;1.52;;;;;;;;;;4940109;28;20050;-70
2023/04/25 14:20:58;;;;;;;8.82;1.70;;;;;;;;;;4929611;29;20047;-70
2023/04/25 14:23:24;;;;;;;5.18;1.50;;;;;;;;;;4937758;28;20044;-70
2023/04/25 14:25:50;;;;;;;7.13;1.95;;;;;;;;;;4941182;28;20121;-70
2023/04/25 14:28:16;;;;;;;11.20;2.83;;;;;;;;;;4940945;28;20050;-69
2023/04/25 14:30:42;;;;;;;3.22;1.67;;;;;;;;;;4936411;28;20056;-69
2023/04/25 14:33:08;;;;;;;8.63;1.45;;;;;;;;;;4940367;28;20054;-69